Time;durP1;ratioP1;P1;durP2;ratioP2;P2;SDS_P1;SDS_P2;PMS_P1;PMS_P2;Temp;Humidity;BMP_temperature;BMP_pressure;BME280_temperature;BME280_humidity;BME280_pressure;Samples;Min_cycle;Max_cycle;Signal;HPM_P1;HPM_P2
2023/03/18 00:02:09;;;;;;;78.30;8.43;;;;;;;;;;4921495;29;20044;-63
2023/03/18 00:04:36;;;;;;;57.13;7.65;;;;;;;;;;4922149;29;20051;-62
2023/03/18 00:07:02;;;;;;;71.57;7.78;;;;;;;;;;4910570;29;20651;-49
2023/03/18 00:09:29;;;;;;;82.72;9.40;;;;;;;;;;4918551;29;20131;-50
2023/03/18 00:11:55;;;;;;;58.08;7.53;;;;;;;;;;4923125;29;20051;-47
2023/03/18 00:14:22;;;;;;;43.75;7.10;;;;;;;;;;4925148;29;20079;-46
2023/03/18 00:16:49;;;;;;;65.50;8.15;;;;;;;;;;4915603;29;20044;-50
2023/03/18 00:19:16;;;;;;;58.08;7.88;;;;;;;;;;4923534;29;20047;-49
2023/03/18 00:21:43;;;;;;;69.57;7.35;;;;;;;;;;4922352;29;20075;-47
2023/03/18 00:24:10;;;;;;;73.57;8.00;;;;;;;;;;4922951;29;20056;-48
2023/03/18 00:26:37;;;;;;;85.22;8.63;;;;;;;;;;4922606;29;20052;-47
2023/03/18 00:29:04;;;;;;;51.63;6.70;;;;;;;;;;4921991;29;20059;-49
2023/03/18 00:31:30;;;;;;;60.45;7.68;;;;;;;;;;4917480;29;20068;-48
2023/03/18 00:33:57;;;;;;;49.20;6.88;;;;;;;;;;4923041;29;20063;-49
2023/03/18 00:36:27;;;;;;;39.55;7.07;;;;;;;;;;4918558;29;20067;-50
2023/03/18 00:38:57;;;;;;;60.13;7.93;;;;;;;;;;4933376;29;20052;-47
2023/03/18 00:41:27;;;;;;;53.70;7.05;;;;;;;;;;4928336;29;20115;-48
2023/03/18 00:43:54;;;;;;;45.60;6.60;;;;;;;;;;4924052;29;20048;-48
2023/03/18 00:46:25;;;;;;;86.57;9.63;;;;;;;;;;4918941;29;20413;-49
2023/03/18 00:49:04;;;;;;;52.58;6.88;;;;;;;;;;4920687;29;20046;-48
2023/03/18 00:51:32;;;;;;;55.53;7.25;;;;;;;;;;4918215;29;20044;-47
2023/03/18 00:53:59;;;;;;;51.92;6.38;;;;;;;;;;4933608;29;20082;-47
2023/03/18 00:56:26;;;;;;;37.13;5.72;;;;;;;;;;4923516;29;20134;-47
2023/03/18 00:58:53;;;;;;;55.08;7.10;;;;;;;;;;4921610;29;20055;-48
2023/03/18 01:01:21;;;;;;;43.65;6.43;;;;;;;;;;4923717;29;20050;-51
2023/03/18 01:03:48;;;;;;;49.38;6.30;;;;;;;;;;4918097;29;20092;-47
2023/03/18 01:06:17;;;;;;;86.05;9.00;;;;;;;;;;4920435;29;20079;-47
2023/03/18 01:08:44;;;;;;;85.88;8.70;;;;;;;;;;4917774;29;20179;-47
2023/03/18 01:11:12;;;;;;;71.93;8.50;;;;;;;;;;4910990;29;20060;-47
2023/03/18 01:13:39;;;;;;;157.68;13.05;;;;;;;;;;4918052;29;20592;-62
2023/03/18 01:16:07;;;;;;;47.47;7.07;;;;;;;;;;4919502;29;20506;-63
2023/03/18 01:18:35;;;;;;;44.72;6.88;;;;;;;;;;4919408;29;20050;-62
2023/03/18 01:21:02;;;;;;;69.70;8.10;;;;;;;;;;4920839;29;20048;-65
2023/03/18 01:23:34;;;;;;;94.82;9.32;;;;;;;;;;4914445;29;20048;-64
2023/03/18 01:26:01;;;;;;;35.10;6.07;;;;;;;;;;4921803;29;20047;-65
2023/03/18 01:28:27;;;;;;;67.82;7.75;;;;;;;;;;4925110;29;20116;-64
2023/03/18 01:30:56;;;;;;;46.53;6.45;;;;;;;;;;4924630;29;22309;-63
2023/03/18 01:33:27;;;;;;;43.38;5.75;;;;;;;;;;4919211;29;20100;-64
2023/03/18 01:35:55;;;;;;;64.78;7.90;;;;;;;;;;4921133;29;20071;-63
2023/03/18 01:38:26;;;;;;;80.65;8.23;;;;;;;;;;4919812;29;20048;-64
2023/03/18 01:40:53;;;;;;;62.30;7.32;;;;;;;;;;4926911;29;20059;-63
2023/03/18 01:43:22;;;;;;;39.95;5.82;;;;;;;;;;4918965;29;20056;-64
2023/03/18 01:45:52;;;;;;;51.33;6.80;;;;;;;;;;4925735;29;20048;-63
2023/03/18 01:48:20;;;;;;;67.28;7.03;;;;;;;;;;4924256;29;20059;-63
2023/03/18 01:50:50;;;;;;;47.40;5.80;;;;;;;;;;4924765;29;20094;-63
2023/03/18 01:53:17;;;;;;;59.63;7.40;;;;;;;;;;4919865;29;20048;-64
2023/03/18 01:55:44;;;;;;;82.95;8.13;;;;;;;;;;4922324;29;20055;-63
2023/03/18 01:58:23;;;;;;;51.40;6.30;;;;;;;;;;4923280;29;20060;-64
2023/03/18 02:00:53;;;;;;;53.72;6.75;;;;;;;;;;4922358;29;20456;-64
2023/03/18 02:03:21;;;;;;;60.05;6.80;;;;;;;;;;4924613;29;20047;-63
2023/03/18 02:05:48;;;;;;;83.28;8.43;;;;;;;;;;4924134;29;20386;-64
2023/03/18 02:08:16;;;;;;;58.40;6.43;;;;;;;;;;4926484;29;20048;-64
2023/03/18 02:10:44;;;;;;;39.90;5.75;;;;;;;;;;4922735;29;20048;-63
2023/03/18 02:13:13;;;;;;;42.03;5.97;;;;;;;;;;4923686;29;20103;-64
2023/03/18 02:15:51;;;;;;;69.28;7.55;;;;;;;;;;4925001;29;20043;-64
2023/03/18 02:18:23;;;;;;;53.00;6.13;;;;;;;;;;4938422;28;20056;-65
2023/03/18 02:20:56;;;;;;;79.80;8.15;;;;;;;;;;4923604;29;20055;-63
2023/03/18 02:23:41;;;;;;;51.00;5.93;;;;;;;;;;4923287;29;20047;-64
2023/03/18 02:26:17;;;;;;;72.82;7.32;;;;;;;;;;4932379;28;21001;-48
2023/03/18 02:28:45;;;;;;;58.45;6.60;;;;;;;;;;4919058;29;20410;-50
2023/03/18 02:31:13;;;;;;;50.65;5.82;;;;;;;;;;4923783;29;20487;-46
2023/03/18 02:33:41;;;;;;;93.75;8.82;;;;;;;;;;4920464;29;20040;-51
2023/03/18 02:36:09;;;;;;;44.67;5.88;;;;;;;;;;4923434;29;20118;-51
2023/03/18 02:38:42;;;;;;;60.80;7.78;;;;;;;;;;4927392;29;20067;-47
2023/03/18 02:41:16;;;;;;;48.00;5.93;;;;;;;;;;4925909;29;20043;-47
2023/03/18 02:43:43;;;;;;;71.60;7.85;;;;;;;;;;4923547;29;20131;-49
2023/03/18 02:46:28;;;;;;;57.67;6.65;;;;;;;;;;4924791;29;20500;-49
2023/03/18 02:48:56;;;;;;;44.92;5.60;;;;;;;;;;4934717;29;20143;-48
2023/03/18 02:51:24;;;;;;;51.35;5.97;;;;;;;;;;4922856;29;20127;-46
2023/03/18 02:53:53;;;;;;;77.95;7.57;;;;;;;;;;4937385;29;20458;-48
2023/03/18 02:56:20;;;;;;;48.13;5.53;;;;;;;;;;4921776;29;20058;-51
2023/03/18 02:58:46;;;;;;;51.70;5.78;;;;;;;;;;4937189;29;20076;-48
2023/03/18 03:01:16;;;;;;;60.65;6.78;;;;;;;;;;4924023;29;20118;-48
2023/03/18 03:03:42;;;;;;;55.58;5.93;;;;;;;;;;4923724;29;20489;-48
2023/03/18 03:06:11;;;;;;;68.03;7.03;;;;;;;;;;4922394;29;20043;-51
2023/03/18 03:08:38;;;;;;;102.65;9.05;;;;;;;;;;4926981;29;20044;-49
2023/03/18 03:11:04;;;;;;;67.28;6.85;;;;;;;;;;4924135;29;20048;-49
2023/03/18 03:13:34;;;;;;;75.97;7.63;;;;;;;;;;4921231;29;20052;-50
2023/03/18 03:16:01;;;;;;;36.10;5.25;;;;;;;;;;4926792;29;20051;-48
2023/03/18 03:18:29;;;;;;;65.28;6.47;;;;;;;;;;4919784;29;20099;-48
2023/03/18 03:20:55;;;;;;;100.05;8.82;;;;;;;;;;4920317;29;20059;-50
2023/03/18 03:23:22;;;;;;;49.70;5.63;;;;;;;;;;4929097;29;20051;-51
2023/03/18 03:25:48;;;;;;;48.20;5.85;;;;;;;;;;4918239;29;20091;-52
2023/03/18 03:28:15;;;;;;;71.35;7.63;;;;;;;;;;4923171;29;20040;-49
2023/03/18 03:30:42;;;;;;;54.33;6.32;;;;;;;;;;4920891;29;20107;-47
2023/03/18 03:33:09;;;;;;;53.63;6.72;;;;;;;;;;4922076;29;20051;-47
2023/03/18 03:35:36;;;;;;;64.57;7.00;;;;;;;;;;4936862;29;20052;-47
2023/03/18 03:38:04;;;;;;;74.30;7.35;;;;;;;;;;4921662;29;20048;-48
2023/03/18 03:40:31;;;;;;;39.28;6.00;;;;;;;;;;4919053;29;20052;-46
2023/03/18 03:42:58;;;;;;;74.28;8.70;;;;;;;;;;4922063;29;20130;-48
2023/03/18 03:45:24;;;;;;;43.17;7.78;;;;;;;;;;4918834;29;20044;-48
2023/03/18 03:47:52;;;;;;;72.55;10.63;;;;;;;;;;4920944;29;20051;-50
2023/03/18 03:50:20;;;;;;;78.15;9.65;;;;;;;;;;4939476;29;20050;-48
2023/03/18 03:52:47;;;;;;;57.03;8.27;;;;;;;;;;4923986;29;20111;-51
2023/03/18 03:55:15;;;;;;;49.53;8.05;;;;;;;;;;4918325;29;20072;-47
2023/03/18 03:57:41;;;;;;;70.15;8.07;;;;;;;;;;4936414;29;20047;-45
2023/03/18 04:00:12;;;;;;;65.57;8.00;;;;;;;;;;4922002;29;20078;-48
2023/03/18 04:02:46;;;;;;;71.05;8.25;;;;;;;;;;4918245;29;20079;-47
2023/03/18 04:05:13;;;;;;;95.30;8.63;;;;;;;;;;4938441;29;20048;-49
2023/03/18 04:07:41;;;;;;;56.08;6.18;;;;;;;;;;4923638;29;20055;-48
2023/03/18 04:10:09;;;;;;;33.00;4.78;;;;;;;;;;4934667;28;20143;-49
2023/03/18 04:12:36;;;;;;;77.47;7.63;;;;;;;;;;4920181;29;20103;-47
2023/03/18 04:15:04;;;;;;;43.97;5.10;;;;;;;;;;4923534;29;20042;-48
2023/03/18 04:17:32;;;;;;;70.95;7.45;;;;;;;;;;4917298;29;20210;-46
2023/03/18 04:19:58;;;;;;;38.75;5.28;;;;;;;;;;4923358;29;20448;-52
2023/03/18 04:22:28;;;;;;;50.67;5.78;;;;;;;;;;4921220;29;20036;-48
2023/03/18 04:24:55;;;;;;;51.85;5.30;;;;;;;;;;4918033;29;20501;-49
2023/03/18 04:27:22;;;;;;;88.18;8.32;;;;;;;;;;4927571;29;20063;-45
2023/03/18 04:29:49;;;;;;;67.45;7.50;;;;;;;;;;4920970;29;20055;-49
2023/03/18 04:32:17;;;;;;;38.58;5.05;;;;;;;;;;4921511;29;20048;-50
2023/03/18 04:34:43;;;;;;;71.85;7.07;;;;;;;;;;4928018;29;20556;-49
2023/03/18 04:37:12;;;;;;;64.60;6.50;;;;;;;;;;4919645;29;20063;-47
2023/03/18 04:39:41;;;;;;;80.90;7.47;;;;;;;;;;4921057;29;20056;-48
2023/03/18 04:42:09;;;;;;;44.38;4.97;;;;;;;;;;4921373;29;20144;-49
2023/03/18 04:44:36;;;;;;;34.25;4.65;;;;;;;;;;4920848;29;20087;-48
2023/03/18 04:47:03;;;;;;;114.88;9.63;;;;;;;;;;4919310;29;20071;-49
2023/03/18 04:49:30;;;;;;;64.65;6.60;;;;;;;;;;4920329;29;20074;-50
2023/03/18 04:51:58;;;;;;;42.08;5.30;;;;;;;;;;4922237;29;20052;-50
2023/03/18 04:54:29;;;;;;;76.97;8.30;;;;;;;;;;4912852;29;20472;-47
2023/03/18 04:57:00;;;;;;;59.15;6.40;;;;;;;;;;4936654;29;20040;-49
2023/03/18 04:59:29;;;;;;;42.50;7.10;;;;;;;;;;4920503;29;20136;-47
2023/03/18 05:01:56;;;;;;;66.50;7.13;;;;;;;;;;4939144;29;20063;-46
2023/03/18 05:04:22;;;;;;;62.55;6.55;;;;;;;;;;4920965;29;20079;-48
2023/03/18 05:06:51;;;;;;;52.53;6.07;;;;;;;;;;4920713;29;20044;-47
2023/03/18 05:09:28;;;;;;;46.45;5.63;;;;;;;;;;4916252;29;20064;-47
2023/03/18 05:11:54;;;;;;;80.82;7.75;;;;;;;;;;4920599;29;20219;-47
2023/03/18 05:14:30;;;;;;;65.88;7.40;;;;;;;;;;4921394;29;20047;-47
2023/03/18 05:16:57;;;;;;;60.05;6.47;;;;;;;;;;4923580;29;20836;-47
2023/03/18 05:19:25;;;;;;;45.00;5.72;;;;;;;;;;4937983;29;20122;-48
2023/03/18 05:21:59;;;;;;;80.80;8.52;;;;;;;;;;4924568;29;20578;-48
2023/03/18 05:24:26;;;;;;;85.95;10.70;;;;;;;;;;4922106;29;20056;-63
2023/03/18 05:26:54;;;;;;;84.93;8.25;;;;;;;;;;4910856;29;20061;-61
2023/03/18 05:29:24;;;;;;;60.22;6.93;;;;;;;;;;4924116;29;20047;-64
2023/03/18 05:32:13;;;;;;;46.28;6.43;;;;;;;;;;4939983;29;20462;-63
2023/03/18 05:34:41;;;;;;;59.60;6.65;;;;;;;;;;4925554;29;20048;-61
2023/03/18 05:37:10;;;;;;;42.03;6.28;;;;;;;;;;4920990;29;20086;-63
2023/03/18 05:39:42;;;;;;;91.68;9.15;;;;;;;;;;4924137;29;20512;-63
2023/03/18 05:42:13;;;;;;;52.80;6.65;;;;;;;;;;4920818;29;20535;-63
2023/03/18 05:44:41;;;;;;;41.55;6.13;;;;;;;;;;4925766;29;20812;-63
2023/03/18 05:47:09;;;;;;;71.30;7.18;;;;;;;;;;4922399;29;20052;-63
2023/03/18 05:49:47;;;;;;;59.88;7.07;;;;;;;;;;4922102;29;20052;-62
2023/03/18 05:52:19;;;;;;;89.28;9.05;;;;;;;;;;4923711;29;20128;-62
2023/03/18 05:54:48;;;;;;;42.70;5.65;;;;;;;;;;4923044;29;20137;-61
2023/03/18 05:57:21;;;;;;;41.47;5.63;;;;;;;;;;4927395;29;20054;-63
2023/03/18 05:59:51;;;;;;;93.80;9.23;;;;;;;;;;4924207;29;20063;-62
2023/03/18 06:02:18;;;;;;;41.60;5.75;;;;;;;;;;4922580;29;20492;-63
2023/03/18 06:04:44;;;;;;;37.75;6.13;;;;;;;;;;4922803;29;20114;-60
2023/03/18 06:07:12;;;;;;;69.70;7.40;;;;;;;;;;4921922;29;20698;-63
2023/03/18 06:09:39;;;;;;;59.42;6.90;;;;;;;;;;4941679;29;20095;-61
2023/03/18 06:12:06;;;;;;;44.63;6.18;;;;;;;;;;4923328;29;20383;-62
2023/03/18 06:14:32;;;;;;;59.80;6.82;;;;;;;;;;4919832;29;20043;-62
2023/03/18 06:17:00;;;;;;;37.85;5.00;;;;;;;;;;4924981;29;20083;-64
2023/03/18 06:19:29;;;;;;;49.90;5.97;;;;;;;;;;4919381;29;20044;-61
2023/03/18 06:21:56;;;;;;;90.75;8.70;;;;;;;;;;4922113;29;20597;-62
2023/03/18 06:24:22;;;;;;;47.25;6.55;;;;;;;;;;4922416;29;20588;-63
2023/03/18 06:26:49;;;;;;;64.93;7.05;;;;;;;;;;4920963;29;20052;-63
2023/03/18 06:29:17;;;;;;;63.80;7.20;;;;;;;;;;4922360;29;20050;-62
2023/03/18 06:31:43;;;;;;;53.53;6.93;;;;;;;;;;4924868;29;20450;-62
2023/03/18 06:34:14;;;;;;;52.67;6.30;;;;;;;;;;4916641;29;20076;-62
2023/03/18 06:36:41;;;;;;;69.75;7.38;;;;;;;;;;4926053;29;20590;-62
2023/03/18 06:39:13;;;;;;;47.80;6.32;;;;;;;;;;4929343;29;20047;-61
2023/03/18 06:41:41;;;;;;;81.90;8.38;;;;;;;;;;4922332;29;20052;-47
2023/03/18 06:44:26;;;;;;;39.72;6.40;;;;;;;;;;4920109;29;20107;-46
2023/03/18 06:46:57;;;;;;;45.17;5.97;;;;;;;;;;4920905;29;20569;-47
2023/03/18 06:49:26;;;;;;;54.60;7.05;;;;;;;;;;4925487;29;20048;-48
2023/03/18 06:52:02;;;;;;;47.47;6.60;;;;;;;;;;4918503;29;20405;-46
2023/03/18 06:54:29;;;;;;;67.80;7.38;;;;;;;;;;4922214;29;20516;-48
2023/03/18 06:56:55;;;;;;;70.95;7.97;;;;;;;;;;4920744;29;20640;-47
2023/03/18 06:59:22;;;;;;;49.88;6.45;;;;;;;;;;4922524;29;20047;-51
2023/03/18 07:01:49;;;;;;;102.30;9.57;;;;;;;;;;4920275;29;20126;-48
2023/03/18 07:04:19;;;;;;;66.10;7.20;;;;;;;;;;4921073;29;20044;-48
2023/03/18 07:06:46;;;;;;;49.15;6.63;;;;;;;;;;4924247;29;20114;-48
2023/03/18 07:09:14;;;;;;;106.38;9.82;;;;;;;;;;4921790;29;20066;-48
2023/03/18 07:11:43;;;;;;;88.15;8.52;;;;;;;;;;4922101;29;20075;-48
2023/03/18 07:14:15;;;;;;;43.17;5.75;;;;;;;;;;4915670;29;20040;-46
2023/03/18 07:16:42;;;;;;;45.78;5.82;;;;;;;;;;4922008;29;20043;-45
2023/03/18 07:19:10;;;;;;;38.97;5.47;;;;;;;;;;4926475;29;20103;-46
2023/03/18 07:21:37;;;;;;;81.85;8.45;;;;;;;;;;4919212;29;20075;-47
2023/03/18 07:24:04;;;;;;;73.97;7.93;;;;;;;;;;4922206;29;20052;-46
2023/03/18 07:26:30;;;;;;;90.28;8.90;;;;;;;;;;4917059;29;20048;-47
2023/03/18 07:28:57;;;;;;;46.00;5.43;;;;;;;;;;4923050;29;20543;-47
2023/03/18 07:31:24;;;;;;;75.35;7.10;;;;;;;;;;4941513;29;20134;-47
2023/03/18 07:33:50;;;;;;;60.97;6.53;;;;;;;;;;4937024;28;20036;-48
2023/03/18 07:36:17;;;;;;;50.80;5.88;;;;;;;;;;4922221;29;20051;-49
2023/03/18 07:38:43;;;;;;;79.18;7.35;;;;;;;;;;4922908;29;20083;-47
2023/03/18 07:41:10;;;;;;;71.63;6.88;;;;;;;;;;4919355;29;20048;-46
2023/03/18 07:43:37;;;;;;;43.10;4.82;;;;;;;;;;4923067;29;20063;-47
2023/03/18 07:46:04;;;;;;;71.03;7.78;;;;;;;;;;4920710;29;20789;-46
2023/03/18 07:48:32;;;;;;;83.18;7.85;;;;;;;;;;4916881;29;20124;-60
2023/03/18 07:51:00;;;;;;;69.68;6.68;;;;;;;;;;4916810;29;20114;-62
2023/03/18 07:53:26;;;;;;;73.32;7.18;;;;;;;;;;4919382;29;20039;-60
2023/03/18 07:55:53;;;;;;;64.18;6.43;;;;;;;;;;4923341;29;20433;-60
2023/03/18 07:58:20;;;;;;;54.25;5.82;;;;;;;;;;4920176;29;20051;-61
2023/03/18 08:00:48;;;;;;;65.95;6.07;;;;;;;;;;4921909;29;20044;-60
2023/03/18 08:03:14;;;;;;;53.08;6.57;;;;;;;;;;4921597;29;20555;-61
2023/03/18 08:05:41;;;;;;;58.30;5.90;;;;;;;;;;4923234;29;20052;-61
2023/03/18 08:08:07;;;;;;;88.22;7.88;;;;;;;;;;4925806;29;20568;-61
2023/03/18 08:10:34;;;;;;;46.05;4.95;;;;;;;;;;4915561;29;20056;-62
2023/03/18 08:13:01;;;;;;;79.07;7.35;;;;;;;;;;4917481;29;20058;-62
2023/03/18 08:15:28;;;;;;;92.72;8.65;;;;;;;;;;4922552;29;20039;-60
2023/03/18 08:17:56;;;;;;;108.78;9.48;;;;;;;;;;4921289;29;20126;-62
2023/03/18 08:20:22;;;;;;;40.33;5.07;;;;;;;;;;4924961;29;20060;-61
2023/03/18 08:22:49;;;;;;;62.05;6.65;;;;;;;;;;4920874;29;20048;-60
2023/03/18 08:25:15;;;;;;;97.93;8.23;;;;;;;;;;4921898;29;20051;-61
2023/03/18 08:27:42;;;;;;;70.97;7.45;;;;;;;;;;4919876;29;20050;-61
2023/03/18 08:30:09;;;;;;;93.32;10.30;;;;;;;;;;4922563;29;20409;-60
2023/03/18 08:32:36;;;;;;;69.95;11.57;;;;;;;;;;4923797;29;20519;-59
2023/03/18 08:35:04;;;;;;;51.08;6.18;;;;;;;;;;4917973;29;20411;-60
2023/03/18 08:37:30;;;;;;;73.03;7.03;;;;;;;;;;4922799;29;20066;-60
2023/03/18 08:39:58;;;;;;;62.63;6.85;;;;;;;;;;4922731;29;20106;-59
2023/03/18 08:42:24;;;;;;;45.33;5.82;;;;;;;;;;4916985;29;20044;-59
2023/03/18 08:44:51;;;;;;;97.22;8.93;;;;;;;;;;4921456;29;20051;-62
2023/03/18 08:47:17;;;;;;;65.65;6.82;;;;;;;;;;4921908;29;20572;-61
2023/03/18 08:49:44;;;;;;;53.22;6.07;;;;;;;;;;4921278;29;20051;-60
2023/03/18 08:52:10;;;;;;;74.40;12.43;;;;;;;;;;4924218;29;20044;-61
2023/03/18 08:54:37;;;;;;;59.17;6.43;;;;;;;;;;4925442;29;20040;-61
2023/03/18 08:57:04;;;;;;;111.10;9.30;;;;;;;;;;4923430;29;20099;-63
2023/03/18 08:59:30;;;;;;;51.08;5.93;;;;;;;;;;4926074;29;20666;-58
2023/03/18 09:01:57;;;;;;;63.55;6.45;;;;;;;;;;4922209;29;20052;-61
2023/03/18 09:04:24;;;;;;;50.80;6.45;;;;;;;;;;4928252;29;20412;-62
2023/03/18 09:06:51;;;;;;;58.63;6.30;;;;;;;;;;4926967;29;20607;-60
2023/03/18 09:09:17;;;;;;;65.53;7.03;;;;;;;;;;4925272;29;20066;-60
2023/03/18 09:11:45;;;;;;;61.78;7.20;;;;;;;;;;4923931;29;20059;-62
2023/03/18 09:14:12;;;;;;;59.42;7.88;;;;;;;;;;4924636;29;20095;-59
2023/03/18 09:16:39;;;;;;;37.92;5.00;;;;;;;;;;4926307;29;20040;-61
2023/03/18 09:19:05;;;;;;;41.28;5.30;;;;;;;;;;4923707;29;20044;-58
2023/03/18 09:21:32;;;;;;;48.28;5.65;;;;;;;;;;4919127;29;20044;-63
2023/03/18 09:23:58;;;;;;;63.35;7.10;;;;;;;;;;4925773;29;20494;-62
2023/03/18 09:26:25;;;;;;;78.25;7.93;;;;;;;;;;4926323;29;20078;-63
2023/03/18 09:28:51;;;;;;;42.42;5.95;;;;;;;;;;4920829;29;20072;-63
2023/03/18 09:31:18;;;;;;;82.50;8.00;;;;;;;;;;4922525;29;20398;-64
2023/03/18 09:33:45;;;;;;;69.88;6.75;;;;;;;;;;4925189;29;20115;-64
2023/03/18 09:36:12;;;;;;;84.40;7.80;;;;;;;;;;4923724;29;20044;-48
2023/03/18 09:38:40;;;;;;;73.60;7.60;;;;;;;;;;4922603;29;20095;-48
2023/03/18 09:41:16;;;;;;;47.72;6.70;;;;;;;;;;4929373;29;20052;-48
2023/03/18 09:43:56;;;;;;;134.90;11.55;;;;;;;;;;4915735;29;20494;-55
2023/03/18 09:46:34;;;;;;;51.30;6.15;;;;;;;;;;4922663;29;20787;-42
2023/03/18 09:49:20;;;;;;;88.63;8.88;;;;;;;;;;4923582;29;20099;-44
2023/03/18 09:51:56;;;;;;;63.00;7.05;;;;;;;;;;4928397;29;20465;-43
2023/03/18 09:54:35;;;;;;;87.72;8.50;;;;;;;;;;4924855;29;20138;-43
2023/03/18 09:57:02;;;;;;;59.65;7.30;;;;;;;;;;4924464;29;20052;-48
2023/03/18 09:59:29;;;;;;;71.88;7.63;;;;;;;;;;4919895;29;20044;-44
2023/03/18 10:01:56;;;;;;;59.33;6.22;;;;;;;;;;4926673;29;20497;-43
2023/03/18 10:04:24;;;;;;;46.60;5.60;;;;;;;;;;4925908;29;20527;-43
2023/03/18 10:07:00;;;;;;;125.70;9.88;;;;;;;;;;4922925;29;20095;-46
2023/03/18 10:09:29;;;;;;;52.08;5.50;;;;;;;;;;4924590;29;20091;-43
2023/03/18 10:12:03;;;;;;;92.95;8.55;;;;;;;;;;4925024;29;20139;-44
2023/03/18 10:14:36;;;;;;;83.22;8.30;;;;;;;;;;4922138;29;20051;-43
2023/03/18 10:17:13;;;;;;;56.37;6.43;;;;;;;;;;4925965;29;20060;-42
2023/03/18 10:19:43;;;;;;;87.43;8.15;;;;;;;;;;4922152;29;20047;-45
2023/03/18 10:22:10;;;;;;;44.78;6.00;;;;;;;;;;4924222;29;20166;-43
2023/03/18 10:24:56;;;;;;;75.97;8.23;;;;;;;;;;4925389;29;20066;-44
2023/03/18 10:27:41;;;;;;;104.32;9.52;;;;;;;;;;4923234;29;20040;-44
2023/03/18 10:30:26;;;;;;;109.60;9.93;;;;;;;;;;4920565;29;20036;-45
2023/03/18 10:33:11;;;;;;;87.40;8.82;;;;;;;;;;4923924;29;20066;-45
2023/03/18 10:35:50;;;;;;;59.42;7.05;;;;;;;;;;4922630;29;20450;-45
2023/03/18 10:38:20;;;;;;;48.92;5.80;;;;;;;;;;4927315;29;20040;-43
2023/03/18 10:40:47;;;;;;;53.35;6.75;;;;;;;;;;4925745;29;20047;-45
2023/03/18 10:43:15;;;;;;;89.35;7.93;;;;;;;;;;4934347;29;20052;-45
2023/03/18 10:45:42;;;;;;;96.40;9.13;;;;;;;;;;4921205;29;20505;-47
2023/03/18 10:48:29;;;;;;;82.65;13.48;;;;;;;;;;4915956;29;20052;-60
2023/03/18 10:51:06;;;;;;;73.25;8.25;;;;;;;;;;4918013;29;20047;-59
2023/03/18 10:53:42;;;;;;;48.53;6.85;;;;;;;;;;4923697;29;20050;-59
2023/03/18 10:56:10;;;;;;;49.53;7.75;;;;;;;;;;4923602;29;20051;-59
2023/03/18 10:58:37;;;;;;;72.97;7.65;;;;;;;;;;4913726;29;20048;-60
2023/03/18 11:01:06;;;;;;;51.83;6.53;;;;;;;;;;4926501;29;20055;-62
2023/03/18 11:03:53;;;;;;;50.85;6.55;;;;;;;;;;4922025;29;20062;-61
2023/03/18 11:06:43;;;;;;;58.72;6.63;;;;;;;;;;4907359;29;20102;-59
2023/03/18 11:09:12;;;;;;;60.83;6.80;;;;;;;;;;4908738;29;20107;-60
2023/03/18 11:11:39;;;;;;;34.88;4.85;;;;;;;;;;4923511;29;20048;-60
2023/03/18 11:14:07;;;;;;;57.45;6.80;;;;;;;;;;4940140;29;20048;-61
2023/03/18 11:16:37;;;;;;;46.95;5.90;;;;;;;;;;4920836;29;20039;-57
2023/03/18 11:19:28;;;;;;;74.30;7.45;;;;;;;;;;4917927;29;20103;-61
2023/03/18 11:22:18;;;;;;;70.30;6.80;;;;;;;;;;4915505;29;20095;-59
2023/03/18 11:24:45;;;;;;;74.72;7.75;;;;;;;;;;4909970;29;20055;-60
2023/03/18 11:27:17;;;;;;;63.22;7.50;;;;;;;;;;4924223;29;20039;-59
2023/03/18 11:29:48;;;;;;;58.30;11.07;;;;;;;;;;4914942;29;20055;-63
2023/03/18 11:32:26;;;;;;;68.38;7.93;;;;;;;;;;4920502;29;20043;-60
2023/03/18 11:34:56;;;;;;;59.90;5.95;;;;;;;;;;4921744;29;20048;-55
2023/03/18 11:37:30;;;;;;;101.00;9.32;;;;;;;;;;4925362;29;20067;-63
2023/03/18 11:40:12;;;;;;;50.90;8.02;;;;;;;;;;4921734;29;20062;-61
2023/03/18 11:42:39;;;;;;;79.30;8.00;;;;;;;;;;4919241;29;20040;-60
2023/03/18 11:45:25;;;;;;;63.25;6.72;;;;;;;;;;4920040;29;20054;-58
2023/03/18 11:47:53;;;;;;;127.80;10.60;;;;;;;;;;4919710;29;20075;-62
2023/03/18 11:50:22;;;;;;;63.70;7.13;;;;;;;;;;4921257;29;20397;-48
2023/03/18 11:53:07;;;;;;;51.47;5.45;;;;;;;;;;4922450;29;20055;-49
2023/03/18 11:55:40;;;;;;;61.67;6.85;;;;;;;;;;4916260;29;20126;-47
2023/03/18 11:58:22;;;;;;;55.97;6.70;;;;;;;;;;4925144;29;20047;-47
2023/03/18 12:01:09;;;;;;;83.60;7.78;;;;;;;;;;4920454;29;20409;-49
2023/03/18 12:03:44;;;;;;;93.03;8.43;;;;;;;;;;4916254;29;20119;-49
2023/03/18 12:06:22;;;;;;;87.55;8.07;;;;;;;;;;4920086;29;20059;-50
2023/03/18 12:08:51;;;;;;;99.90;8.45;;;;;;;;;;4922261;29;20044;-46
2023/03/18 12:11:22;;;;;;;51.78;6.40;;;;;;;;;;4926010;29;20051;-45
2023/03/18 12:13:52;;;;;;;58.25;6.53;;;;;;;;;;4923509;29;20052;-48
2023/03/18 12:16:40;;;;;;;90.70;8.50;;;;;;;;;;4918221;29;20396;-50
2023/03/18 12:19:07;;;;;;;53.38;6.43;;;;;;;;;;4919552;29;20044;-45
2023/03/18 12:21:39;;;;;;;110.03;10.38;;;;;;;;;;4921496;29;20055;-51
2023/03/18 12:24:38;;;;;;;51.15;6.78;;;;;;;;;;4923202;29;20051;-49
2023/03/18 12:27:05;;;;;;;66.78;7.22;;;;;;;;;;4863277;29;20049;-47
2023/03/18 12:29:51;;;;;;;99.35;8.57;;;;;;;;;;4859386;29;20042;-47
2023/03/18 12:32:30;;;;;;;47.03;5.75;;;;;;;;;;4861888;29;20041;-47
2023/03/18 12:35:15;;;;;;;33.40;5.40;;;;;;;;;;4865105;29;20055;-50
2023/03/18 12:37:46;;;;;;;51.97;6.25;;;;;;;;;;4860832;29;20113;-48
2023/03/18 12:40:32;;;;;;;44.35;5.60;;;;;;;;;;4865593;29;20052;-48
2023/03/18 12:43:14;;;;;;;83.20;7.15;;;;;;;;;;4861773;29;20086;-48
2023/03/18 12:45:43;;;;;;;126.57;10.85;;;;;;;;;;4861226;29;20037;-48
2023/03/18 12:48:33;;;;;;;60.00;8.85;;;;;;;;;;4864115;29;20053;-46
2023/03/18 12:51:12;;;;;;;106.88;9.10;;;;;;;;;;4861420;29;20061;-48
2023/03/18 12:53:44;;;;;;;52.28;6.57;;;;;;;;;;4863690;29;20164;-48
2023/03/18 12:56:12;;;;;;;82.68;8.45;;;;;;;;;;4866121;29;20144;-48
2023/03/18 12:58:47;;;;;;;50.67;6.50;;;;;;;;;;4864749;29;20547;-47
2023/03/18 13:01:17;;;;;;;85.38;8.40;;;;;;;;;;4858518;29;20118;-48
2023/03/18 13:03:50;;;;;;;154.38;11.70;;;;;;;;;;4916319;29;20080;-49
2023/03/18 13:06:20;;;;;;;258.92;18.20;;;;;;;;;;4921983;29;20078;-47
2023/03/18 13:09:10;;;;;;;79.03;7.32;;;;;;;;;;4922835;29;20044;-49
2023/03/18 13:11:57;;;;;;;54.88;6.15;;;;;;;;;;4913085;29;20143;-49
2023/03/18 13:14:27;;;;;;;70.32;6.88;;;;;;;;;;4921463;29;20048;-47
2023/03/18 13:16:54;;;;;;;39.83;5.13;;;;;;;;;;4918057;29;20071;-48
2023/03/18 13:19:21;;;;;;;89.88;8.73;;;;;;;;;;4920416;29;20462;-49
2023/03/18 13:21:50;;;;;;;56.17;5.72;;;;;;;;;;4922304;29;20059;-46
2023/03/18 13:24:41;;;;;;;80.45;7.47;;;;;;;;;;4922962;29;20402;-47
2023/03/18 13:27:26;;;;;;;59.92;7.93;;;;;;;;;;4921038;29;20044;-47
2023/03/18 13:30:07;;;;;;;124.47;9.43;;;;;;;;;;4921276;29;20055;-46
2023/03/18 13:32:52;;;;;;;39.20;5.40;;;;;;;;;;4922684;29;20040;-50
2023/03/18 13:35:27;;;;;;;131.02;10.27;;;;;;;;;;4922713;29;20510;-48
2023/03/18 13:37:57;;;;;;;79.50;8.35;;;;;;;;;;4921067;29;20052;-45
2023/03/18 13:40:42;;;;;;;134.75;11.10;;;;;;;;;;4925522;29;20130;-46
2023/03/18 13:43:12;;;;;;;58.97;7.28;;;;;;;;;;4926583;29;20052;-48
2023/03/18 13:45:40;;;;;;;85.63;8.05;;;;;;;;;;4922459;29;20716;-49
2023/03/18 13:48:11;;;;;;;56.05;6.53;;;;;;;;;;4914674;29;20497;-55
2023/03/18 13:50:39;;;;;;;57.08;6.40;;;;;;;;;;4924374;29;20071;-58
2023/03/18 13:53:17;;;;;;;97.68;8.75;;;;;;;;;;4924336;29;20070;-58
2023/03/18 13:55:59;;;;;;;63.80;6.13;;;;;;;;;;4921813;29;20140;-61
2023/03/18 13:58:27;;;;;;;78.07;6.63;;;;;;;;;;4922567;29;20044;-59
2023/03/18 14:00:53;;;;;;;42.22;6.50;;;;;;;;;;4922076;29;20489;-57
2023/03/18 14:03:25;;;;;;;47.03;5.20;;;;;;;;;;4924426;29;20508;-60
2023/03/18 14:06:07;;;;;;;98.32;9.25;;;;;;;;;;4920734;29;20048;-60
2023/03/18 14:08:43;;;;;;;45.63;5.38;;;;;;;;;;4926549;29;20040;-57
2023/03/18 14:11:15;;;;;;;60.08;6.15;;;;;;;;;;4922672;29;20155;-56
2023/03/18 14:13:43;;;;;;;55.67;5.85;;;;;;;;;;4924647;29;20051;-60
2023/03/18 14:16:11;;;;;;;77.13;7.30;;;;;;;;;;4923196;29;20055;-62
2023/03/18 14:18:37;;;;;;;55.78;5.55;;;;;;;;;;4925141;29;20098;-56
2023/03/18 14:21:07;;;;;;;100.35;8.25;;;;;;;;;;4925522;29;20150;-54
2023/03/18 14:23:36;;;;;;;135.95;12.88;;;;;;;;;;4923673;29;20142;-61
2023/03/18 14:26:07;;;;;;;49.13;5.38;;;;;;;;;;4923340;29;20057;-62
2023/03/18 14:28:41;;;;;;;38.60;5.53;;;;;;;;;;4925985;29;20044;-60
2023/03/18 14:31:25;;;;;;;56.15;6.32;;;;;;;;;;4921122;29;20522;-61
2023/03/18 14:33:57;;;;;;;56.30;6.53;;;;;;;;;;4920626;29;20086;-61
2023/03/18 14:36:38;;;;;;;85.93;7.15;;;;;;;;;;4919966;29;20103;-57
2023/03/18 14:39:06;;;;;;;54.20;6.10;;;;;;;;;;4923606;29;20527;-59
2023/03/18 14:41:36;;;;;;;109.30;9.38;;;;;;;;;;4924788;29;20843;-60
2023/03/18 14:44:14;;;;;;;38.33;5.97;;;;;;;;;;4926244;29;20047;-58
2023/03/18 14:46:42;;;;;;;70.20;7.80;;;;;;;;;;4912441;29;20052;-61
2023/03/18 14:49:28;;;;;;;102.82;10.10;;;;;;;;;;4918627;29;20516;-48